sensor_id;sensor_type;location;lat;lon;timestamp;P1;durP1;ratioP1;P2;durP2;ratioP2
1991;SDS011;997;48.448;8.924;2022-12-10T16:44:18;22.87;;;18.43;;
1991;SDS011;997;48.448;8.924;2022-12-10T16:46:44;19.90;;;17.90;;
1991;SDS011;997;48.448;8.924;2022-12-10T16:49:09;23.20;;;18.10;;
1991;SDS011;997;48.448;8.924;2022-12-10T16:51:35;23.90;;;18.50;;
1991;SDS011;997;48.448;8.924;2022-12-10T16:54:01;24.10;;;21.33;;
1991;SDS011;997;48.448;8.924;2022-12-10T16:56:28;22.50;;;20.00;;
1991;SDS011;997;48.448;8.924;2022-12-10T16:58:55;23.77;;;18.47;;
1991;SDS011;997;48.448;8.924;2022-12-10T17:01:21;20.53;;;17.00;;
1991;SDS011;997;48.448;8.924;2022-12-10T17:03:50;22.97;;;17.07;;
1991;SDS011;997;48.448;8.924;2022-12-10T17:06:17;22.03;;;16.73;;
1991;SDS011;997;48.448;8.924;2022-12-10T17:08:43;19.87;;;17.50;;
1991;SDS011;997;48.448;8.924;2022-12-10T17:14:02;19.73;;;17.60;;
1991;SDS011;997;48.448;8.924;2022-12-10T17:16:30;20.43;;;17.10;;
1991;SDS011;997;48.448;8.924;2022-12-10T17:18:56;17.87;;;15.13;;
1991;SDS011;997;48.448;8.924;2022-12-10T17:21:22;24.80;;;16.57;;
1991;SDS011;997;48.448;8.924;2022-12-10T17:23:48;24.20;;;17.50;;
1991;SDS011;997;48.448;8.924;2022-12-10T17:26:26;18.13;;;14.67;;
1991;SDS011;997;48.448;8.924;2022-12-10T17:28:54;20.83;;;18.20;;
1991;SDS011;997;48.448;8.924;2022-12-10T17:31:26;21.17;;;17.83;;
1991;SDS011;997;48.448;8.924;2022-12-10T17:33:52;21.77;;;16.80;;
1991;SDS011;997;48.448;8.924;2022-12-10T17:36:17;19.20;;;16.90;;
1991;SDS011;997;48.448;8.924;2022-12-10T17:38:43;24.13;;;19.43;;
1991;SDS011;997;48.448;8.924;2022-12-10T17:41:10;22.00;;;19.20;;
1991;SDS011;997;48.448;8.924;2022-12-10T17:43:37;33.60;;;29.27;;
1991;SDS011;997;48.448;8.924;2022-12-10T17:46:03;46.83;;;41.90;;
1991;SDS011;997;48.448;8.924;2022-12-10T17:48:29;31.70;;;27.90;;
1991;SDS011;997;48.448;8.924;2022-12-10T17:50:54;24.50;;;21.40;;
1991;SDS011;997;48.448;8.924;2022-12-10T17:53:20;23.10;;;20.47;;
1991;SDS011;997;48.448;8.924;2022-12-10T17:55:52;28.10;;;22.83;;
1991;SDS011;997;48.448;8.924;2022-12-10T17:58:24;31.80;;;26.27;;
1991;SDS011;997;48.448;8.924;2022-12-10T18:00:50;30.03;;;24.00;;
1991;SDS011;997;48.448;8.924;2022-12-10T18:03:17;25.83;;;22.40;;
1991;SDS011;997;48.448;8.924;2022-12-10T18:05:43;25.43;;;21.73;;
1991;SDS011;997;48.448;8.924;2022-12-10T18:08:11;24.37;;;21.70;;
1991;SDS011;997;48.448;8.924;2022-12-10T18:10:38;23.00;;;18.67;;
1991;SDS011;997;48.448;8.924;2022-12-10T18:13:05;24.87;;;19.63;;
1991;SDS011;997;48.448;8.924;2022-12-10T18:15:30;19.80;;;17.70;;
1991;SDS011;997;48.448;8.924;2022-12-10T18:17:57;24.97;;;18.70;;
1991;SDS011;997;48.448;8.924;2022-12-10T18:20:26;25.73;;;21.73;;
1991;SDS011;997;48.448;8.924;2022-12-10T18:22:56;60.77;;;44.30;;
1991;SDS011;997;48.448;8.924;2022-12-10T18:25:24;71.30;;;47.30;;
1991;SDS011;997;48.448;8.924;2022-12-10T18:27:50;60.83;;;42.23;;
1991;SDS011;997;48.448;8.924;2022-12-10T18:30:18;30.30;;;25.97;;
1991;SDS011;997;48.448;8.924;2022-12-10T18:32:46;30.63;;;26.20;;
1991;SDS011;997;48.448;8.924;2022-12-10T18:35:12;27.17;;;23.57;;
1991;SDS011;997;48.448;8.924;2022-12-10T18:37:38;27.03;;;23.50;;
1991;SDS011;997;48.448;8.924;2022-12-10T18:40:04;27.80;;;24.03;;
1991;SDS011;997;48.448;8.924;2022-12-10T18:42:32;24.83;;;21.97;;
1991;SDS011;997;48.448;8.924;2022-12-10T18:44:58;21.67;;;19.27;;
1991;SDS011;997;48.448;8.924;2022-12-10T18:47:23;23.07;;;20.60;;
1991;SDS011;997;48.448;8.924;2022-12-10T18:49:49;21.10;;;18.77;;
1991;SDS011;997;48.448;8.924;2022-12-10T18:52:15;20.80;;;18.70;;
1991;SDS011;997;48.448;8.924;2022-12-10T18:54:42;26.60;;;19.77;;
1991;SDS011;997;48.448;8.924;2022-12-10T18:57:09;26.03;;;21.70;;
1991;SDS011;997;48.448;8.924;2022-12-10T18:59:37;20.77;;;18.17;;
1991;SDS011;997;48.448;8.924;2022-12-10T19:02:03;24.20;;;19.83;;
1991;SDS011;997;48.448;8.924;2022-12-10T19:04:29;21.37;;;18.67;;
1991;SDS011;997;48.448;8.924;2022-12-10T19:06:54;22.03;;;19.00;;
1991;SDS011;997;48.448;8.924;2022-12-10T19:09:21;23.20;;;17.80;;
1991;SDS011;997;48.448;8.924;2022-12-10T19:11:46;18.03;;;15.77;;
1991;SDS011;997;48.448;8.924;2022-12-10T19:14:14;22.13;;;16.93;;
1991;SDS011;997;48.448;8.924;2022-12-10T19:16:40;17.17;;;15.33;;
1991;SDS011;997;48.448;8.924;2022-12-10T19:19:08;30.13;;;23.20;;
1991;SDS011;997;48.448;8.924;2022-12-10T19:21:35;31.87;;;28.40;;
1991;SDS011;997;48.448;8.924;2022-12-10T19:24:01;29.37;;;22.70;;
1991;SDS011;997;48.448;8.924;2022-12-10T19:26:28;25.77;;;22.10;;
1991;SDS011;997;48.448;8.924;2022-12-10T19:28:57;25.83;;;18.87;;
1991;SDS011;997;48.448;8.924;2022-12-10T19:31:24;29.60;;;24.63;;
1991;SDS011;997;48.448;8.924;2022-12-10T19:33:50;30.00;;;26.53;;
1991;SDS011;997;48.448;8.924;2022-12-10T19:36:23;39.43;;;29.80;;
1991;SDS011;997;48.448;8.924;2022-12-10T19:38:55;27.83;;;21.00;;
1991;SDS011;997;48.448;8.924;2022-12-10T19:41:22;26.77;;;23.87;;
1991;SDS011;997;48.448;8.924;2022-12-10T19:43:47;29.40;;;25.30;;
1991;SDS011;997;48.448;8.924;2022-12-10T19:46:14;19.03;;;16.87;;
1991;SDS011;997;48.448;8.924;2022-12-10T19:48:44;20.93;;;18.70;;
1991;SDS011;997;48.448;8.924;2022-12-10T19:51:10;26.63;;;22.40;;
1991;SDS011;997;48.448;8.924;2022-12-10T19:53:37;25.40;;;21.13;;
1991;SDS011;997;48.448;8.924;2022-12-10T19:56:37;20.03;;;17.90;;
1991;SDS011;997;48.448;8.924;2022-12-10T19:58:59;20.20;;;17.63;;
1991;SDS011;997;48.448;8.924;2022-12-10T20:01:26;23.50;;;19.60;;
1991;SDS011;997;48.448;8.924;2022-12-10T20:03:54;26.07;;;19.53;;
1991;SDS011;997;48.448;8.924;2022-12-10T20:06:24;25.80;;;21.43;;
1991;SDS011;997;48.448;8.924;2022-12-10T20:08:57;25.40;;;18.77;;
1991;SDS011;997;48.448;8.924;2022-12-10T20:11:24;23.20;;;18.80;;
1991;SDS011;997;48.448;8.924;2022-12-10T20:13:50;25.40;;;20.60;;
1991;SDS011;997;48.448;8.924;2022-12-10T20:16:20;20.57;;;17.33;;
1991;SDS011;997;48.448;8.924;2022-12-10T20:18:49;25.37;;;18.83;;
1991;SDS011;997;48.448;8.924;2022-12-10T20:21:15;23.50;;;19.10;;
1991;SDS011;997;48.448;8.924;2022-12-10T20:23:42;23.93;;;19.40;;
1991;SDS011;997;48.448;8.924;2022-12-10T20:28:46;23.73;;;19.67;;
1991;SDS011;997;48.448;8.924;2022-12-10T20:31:13;21.73;;;19.40;;
1991;SDS011;997;48.448;8.924;2022-12-10T20:33:40;22.33;;;20.03;;
1991;SDS011;997;48.448;8.924;2022-12-10T20:36:08;22.70;;;20.10;;
1991;SDS011;997;48.448;8.924;2022-12-10T20:38:37;21.17;;;19.00;;
1991;SDS011;997;48.448;8.924;2022-12-10T20:41:03;25.70;;;22.07;;
1991;SDS011;997;48.448;8.924;2022-12-10T20:43:29;26.93;;;24.00;;
1991;SDS011;997;48.448;8.924;2022-12-10T20:45:54;22.80;;;20.40;;
1991;SDS011;997;48.448;8.924;2022-12-10T20:48:20;27.13;;;22.17;;
1991;SDS011;997;48.448;8.924;2022-12-10T20:50:46;24.37;;;21.77;;
1991;SDS011;997;48.448;8.924;2022-12-10T20:53:11;24.20;;;21.60;;
1991;SDS011;997;48.448;8.924;2022-12-10T20:55:37;24.90;;;21.43;;
1991;SDS011;997;48.448;8.924;2022-12-10T20:58:03;25.10;;;22.63;;
1991;SDS011;997;48.448;8.924;2022-12-10T21:00:28;28.77;;;23.03;;
1991;SDS011;997;48.448;8.924;2022-12-10T21:02:54;26.57;;;22.70;;
1991;SDS011;997;48.448;8.924;2022-12-10T21:05:20;26.20;;;22.23;;
1991;SDS011;997;48.448;8.924;2022-12-10T21:07:48;24.03;;;21.17;;
1991;SDS011;997;48.448;8.924;2022-12-10T21:10:15;32.90;;;27.73;;
1991;SDS011;997;48.448;8.924;2022-12-10T21:13:01;29.20;;;25.33;;
1991;SDS011;997;48.448;8.924;2022-12-10T21:15:26;24.53;;;20.90;;
1991;SDS011;997;48.448;8.924;2022-12-10T21:17:52;22.50;;;19.83;;
1991;SDS011;997;48.448;8.924;2022-12-10T21:20:18;26.30;;;21.10;;
1991;SDS011;997;48.448;8.924;2022-12-10T21:22:44;23.47;;;21.00;;
1991;SDS011;997;48.448;8.924;2022-12-10T21:25:10;23.87;;;21.37;;
1991;SDS011;997;48.448;8.924;2022-12-10T21:27:37;25.17;;;22.47;;
1991;SDS011;997;48.448;8.924;2022-12-10T21:30:03;34.97;;;26.40;;
1991;SDS011;997;48.448;8.924;2022-12-10T21:32:29;33.47;;;25.57;;
1991;SDS011;997;48.448;8.924;2022-12-10T21:34:58;31.03;;;24.27;;
1991;SDS011;997;48.448;8.924;2022-12-10T21:37:24;27.50;;;24.53;;
1991;SDS011;997;48.448;8.924;2022-12-10T21:39:50;28.20;;;25.10;;
1991;SDS011;997;48.448;8.924;2022-12-10T21:42:15;31.37;;;23.40;;
1991;SDS011;997;48.448;8.924;2022-12-10T21:44:59;25.53;;;21.87;;
1991;SDS011;997;48.448;8.924;2022-12-10T21:47:25;25.40;;;22.87;;
1991;SDS011;997;48.448;8.924;2022-12-10T21:49:52;26.83;;;21.37;;
1991;SDS011;997;48.448;8.924;2022-12-10T21:52:18;24.83;;;21.60;;
1991;SDS011;997;48.448;8.924;2022-12-10T21:54:44;29.30;;;23.90;;
1991;SDS011;997;48.448;8.924;2022-12-10T21:57:09;31.83;;;24.83;;
1991;SDS011;997;48.448;8.924;2022-12-10T21:59:35;29.90;;;26.37;;
1991;SDS011;997;48.448;8.924;2022-12-10T22:02:01;31.67;;;24.70;;
1991;SDS011;997;48.448;8.924;2022-12-10T22:04:26;24.93;;;21.17;;
1991;SDS011;997;48.448;8.924;2022-12-10T22:06:52;27.80;;;22.30;;
1991;SDS011;997;48.448;8.924;2022-12-10T22:09:18;28.30;;;22.67;;
1991;SDS011;997;48.448;8.924;2022-12-10T22:11:44;26.37;;;23.47;;
1991;SDS011;997;48.448;8.924;2022-12-10T22:14:12;28.20;;;21.87;;
1991;SDS011;997;48.448;8.924;2022-12-10T22:16:38;25.00;;;22.13;;
1991;SDS011;997;48.448;8.924;2022-12-10T22:19:04;31.87;;;26.40;;
1991;SDS011;997;48.448;8.924;2022-12-10T22:21:30;30.63;;;25.60;;
1991;SDS011;997;48.448;8.924;2022-12-10T22:23:56;32.30;;;25.30;;
1991;SDS011;997;48.448;8.924;2022-12-10T22:26:22;28.20;;;24.73;;
1991;SDS011;997;48.448;8.924;2022-12-10T22:28:47;28.33;;;23.17;;
